createdAt,value
2023-11-01T00:02:16.694Z,100.00
2023-11-01T00:04:44.001Z,100.00
2023-11-01T00:07:11.113Z,100.00
2023-11-01T00:09:38.851Z,100.00
2023-11-01T00:12:06.366Z,100.00
2023-11-01T00:14:33.415Z,100.00
2023-11-01T00:17:00.473Z,100.00
2023-11-01T00:19:27.470Z,100.00
2023-11-01T00:21:54.635Z,100.00
2023-11-01T00:24:22.800Z,100.00
2023-11-01T00:26:49.810Z,100.00
2023-11-01T00:29:16.990Z,100.00
2023-11-01T00:31:44.687Z,100.00
2023-11-01T00:34:11.837Z,100.00
2023-11-01T00:36:38.858Z,100.00
2023-11-01T00:39:06.127Z,100.00
2023-11-01T00:41:33.327Z,100.00
2023-11-01T00:44:00.554Z,100.00
2023-11-01T00:46:28.828Z,100.00
2023-11-01T00:48:56.098Z,100.00
2023-11-01T00:51:23.164Z,100.00
2023-11-01T00:53:50.205Z,100.00
2023-11-01T00:56:18.079Z,100.00
2023-11-01T00:58:45.191Z,100.00
2023-11-01T01:01:12.542Z,100.00
2023-11-01T01:03:39.653Z,100.00
2023-11-01T01:06:07.000Z,100.00
2023-11-01T01:08:34.200Z,100.00
2023-11-01T01:11:01.226Z,100.00
2023-11-01T01:13:28.983Z,100.00
2023-11-01T01:15:56.177Z,100.00
2023-11-01T01:18:23.399Z,100.00
2023-11-01T01:20:50.597Z,100.00
2023-11-01T01:23:17.760Z,100.00
2023-11-01T01:25:44.989Z,100.00
2023-11-01T01:28:12.179Z,100.00
2023-11-01T01:30:39.406Z,100.00
2023-11-01T01:33:06.621Z,100.00
2023-11-01T01:35:33.898Z,100.00
2023-11-01T01:38:01.008Z,100.00
2023-11-01T01:40:28.253Z,100.00
2023-11-01T01:42:55.550Z,100.00
2023-11-01T01:45:22.863Z,100.00
2023-11-01T01:47:50.194Z,100.00
2023-11-01T01:50:17.831Z,100.00
2023-11-01T01:52:44.962Z,100.00
2023-11-01T01:55:12.486Z,100.00
2023-11-01T01:57:39.860Z,100.00
2023-11-01T02:00:08.791Z,100.00
2023-11-01T02:02:42.537Z,100.00
2023-11-01T02:05:10.833Z,100.00
2023-11-01T02:07:38.382Z,100.00
2023-11-01T02:10:07.000Z,100.00
2023-11-01T02:12:34.652Z,100.00
2023-11-01T02:15:02.818Z,100.00
2023-11-01T02:17:35.248Z,100.00
2023-11-01T02:20:04.158Z,100.00
2023-11-01T02:22:33.091Z,100.00
2023-11-01T02:25:00.308Z,100.00
2023-11-01T02:27:30.039Z,100.00
2023-11-01T02:29:57.148Z,100.00
2023-11-01T02:32:29.601Z,100.00
2023-11-01T02:34:56.891Z,100.00
2023-11-01T02:37:24.486Z,100.00
2023-11-01T02:39:51.535Z,100.00
2023-11-01T02:42:19.228Z,100.00
2023-11-01T02:44:46.458Z,100.00
2023-11-01T02:47:13.848Z,100.00
2023-11-01T02:49:40.962Z,100.00
2023-11-01T02:52:07.942Z,100.00
2023-11-01T02:54:35.003Z,100.00
2023-11-01T02:57:02.477Z,100.00
2023-11-01T02:59:30.056Z,100.00
2023-11-01T03:01:57.497Z,100.00
2023-11-01T03:04:24.714Z,100.00
2023-11-01T03:06:51.701Z,100.00
2023-11-01T03:09:20.069Z,100.00
2023-11-01T03:11:47.129Z,100.00
2023-11-01T03:14:14.272Z,100.00
2023-11-01T03:16:42.555Z,100.00
2023-11-01T03:19:09.926Z,100.00
2023-11-01T03:21:36.932Z,100.00
2023-11-01T03:24:04.403Z,100.00
2023-11-01T03:26:31.492Z,100.00
2023-11-01T03:29:02.028Z,100.00
2023-11-01T03:31:29.148Z,100.00
2023-11-01T03:33:56.493Z,100.00
2023-11-01T03:36:23.600Z,100.00
2023-11-01T03:38:50.729Z,100.00
2023-11-01T03:41:18.633Z,100.00
2023-11-01T03:43:45.985Z,100.00
2023-11-01T03:46:13.209Z,100.00
2023-11-01T03:49:06.329Z,100.00
2023-11-01T03:51:33.374Z,100.00
2023-11-01T03:54:01.212Z,100.00
2023-11-01T03:56:28.676Z,100.00
2023-11-01T03:58:56.356Z,100.00
2023-11-01T04:01:23.563Z,100.00
2023-11-01T04:03:50.898Z,100.00
2023-11-01T04:06:18.026Z,100.00
2023-11-01T04:08:45.081Z,100.00
2023-11-01T04:11:13.753Z,100.00
2023-11-01T04:13:40.827Z,100.00
2023-11-01T04:16:08.302Z,100.00
2023-11-01T04:18:36.090Z,100.00
2023-11-01T04:21:04.357Z,100.00
2023-11-01T04:23:31.430Z,100.00
2023-11-01T04:26:01.614Z,100.00
2023-11-01T04:28:28.713Z,100.00
2023-11-01T04:30:56.151Z,100.00
2023-11-01T04:33:23.305Z,100.00
2023-11-01T04:35:50.560Z,100.00
2023-11-01T04:38:19.903Z,100.00
2023-11-01T04:40:47.138Z,100.00
2023-11-01T04:43:14.228Z,100.00
2023-11-01T04:45:41.660Z,100.00
2023-11-01T04:48:12.964Z,100.00
2023-11-01T04:50:40.600Z,100.00
2023-11-01T04:53:08.303Z,100.00
2023-11-01T04:55:35.623Z,100.00
2023-11-01T04:58:13.104Z,100.00
2023-11-01T05:01:07.594Z,100.00
2023-11-01T05:03:39.045Z,100.00
2023-11-01T05:06:07.061Z,100.00
2023-11-01T05:08:47.540Z,100.00
2023-11-01T05:11:14.680Z,100.00
2023-11-01T05:13:41.992Z,100.00
2023-11-01T05:16:09.260Z,100.00
2023-11-01T05:18:36.377Z,100.00
2023-11-01T05:21:06.382Z,100.00
2023-11-01T05:23:33.988Z,100.00
2023-11-01T05:26:01.162Z,100.00
2023-11-01T05:28:30.255Z,100.00
2023-11-01T05:30:57.349Z,100.00
2023-11-01T05:33:24.535Z,100.00
2023-11-01T05:35:51.781Z,100.00
2023-11-01T05:38:19.040Z,100.00
2023-11-01T05:40:46.081Z,100.00
2023-11-01T05:43:13.203Z,100.00
2023-11-01T05:45:40.293Z,100.00
2023-11-01T05:48:09.959Z,100.00
2023-11-01T05:50:38.274Z,100.00
2023-11-01T05:53:10.695Z,100.00
2023-11-01T05:55:54.255Z,100.00
2023-11-01T05:58:28.053Z,100.00
2023-11-01T06:00:55.589Z,100.00
2023-11-01T06:03:26.458Z,100.00
2023-11-01T06:05:54.294Z,100.00
2023-11-01T06:08:21.708Z,100.00
2023-11-01T06:10:49.433Z,100.00
2023-11-01T06:13:16.912Z,100.00
2023-11-01T06:15:50.203Z,100.00
2023-11-01T06:18:17.967Z,100.00
2023-11-01T06:20:45.870Z,100.00
2023-11-01T06:23:21.083Z,100.00
2023-11-01T06:25:55.277Z,100.00
2023-11-01T06:28:23.080Z,100.00
2023-11-01T06:30:50.955Z,100.00
2023-11-01T06:33:18.167Z,100.00
2023-11-01T06:35:45.539Z,100.00
2023-11-01T06:38:12.748Z,100.00
2023-11-01T06:40:39.895Z,100.00
2023-11-01T06:43:08.640Z,100.00
2023-11-01T06:45:36.959Z,100.00
2023-11-01T06:48:04.757Z,100.00
2023-11-01T06:50:32.076Z,100.00
2023-11-01T06:52:59.277Z,100.00
2023-11-01T06:55:26.552Z,100.00
2023-11-01T06:57:54.790Z,100.00
2023-11-01T07:00:21.961Z,100.00
2023-11-01T07:02:49.214Z,100.00
2023-11-01T07:05:16.306Z,100.00
2023-11-01T07:07:43.421Z,99.17
2023-11-01T07:10:11.929Z,98.51
2023-11-01T07:12:39.587Z,98.05
2023-11-01T07:15:11.500Z,98.01
2023-11-01T07:17:38.778Z,97.07
2023-11-01T07:20:07.047Z,96.05
2023-11-01T07:22:34.482Z,95.41
2023-11-01T07:25:01.755Z,94.68
2023-11-01T07:27:31.058Z,93.69
2023-11-01T07:29:58.195Z,92.59
2023-11-01T07:32:25.465Z,89.75
2023-11-01T07:34:52.849Z,87.68
2023-11-01T07:37:20.236Z,85.75
2023-11-01T07:39:47.306Z,84.55
2023-11-01T07:42:14.397Z,83.32
2023-11-01T07:44:41.639Z,82.48
2023-11-01T07:47:08.636Z,82.88
2023-11-01T07:49:36.220Z,83.21
2023-11-01T07:52:03.989Z,85.07
2023-11-01T07:54:33.095Z,84.58
2023-11-01T07:57:03.363Z,84.81
2023-11-01T07:59:30.795Z,85.75
2023-11-01T08:02:00.590Z,84.01
2023-11-01T08:04:29.929Z,83.24
2023-11-01T08:06:58.005Z,83.47
2023-11-01T08:09:25.187Z,82.61
2023-11-01T08:11:52.380Z,82.07
2023-11-01T08:14:21.007Z,81.85
2023-11-01T08:16:49.711Z,82.69
2023-11-01T08:19:17.245Z,81.79
2023-11-01T08:21:44.434Z,80.62
2023-11-01T08:24:12.711Z,80.47
2023-11-01T08:26:39.979Z,78.60
2023-11-01T08:29:07.329Z,75.77
2023-11-01T08:31:34.464Z,74.08
2023-11-01T08:34:01.674Z,75.12
2023-11-01T08:36:29.227Z,76.79
2023-11-01T08:38:56.269Z,78.73
2023-11-01T08:41:24.106Z,80.79
2023-11-01T08:43:51.476Z,80.01
2023-11-01T08:46:18.942Z,79.14
2023-11-01T08:48:46.074Z,80.22
2023-11-01T08:51:14.034Z,79.02
2023-11-01T08:53:41.369Z,78.31
2023-11-01T08:56:10.269Z,76.95
2023-11-01T08:58:37.543Z,77.12
2023-11-01T09:01:04.936Z,76.09
2023-11-01T09:03:32.260Z,74.14
2023-11-01T09:05:59.618Z,71.50
2023-11-01T09:08:26.754Z,70.17
2023-11-01T09:10:54.782Z,68.08
2023-11-01T09:13:24.054Z,68.76
2023-11-01T09:15:51.689Z,66.65
2023-11-01T09:18:19.310Z,64.07
2023-11-01T09:20:46.962Z,64.69
2023-11-01T09:23:14.150Z,63.23
2023-11-01T09:25:41.468Z,65.42
2023-11-01T09:28:08.736Z,63.60
2023-11-01T09:30:36.965Z,61.53
2023-11-01T09:33:04.466Z,60.00
2023-11-01T09:35:32.706Z,60.36
2023-11-01T09:37:59.931Z,59.31
2023-11-01T09:40:27.484Z,58.48
2023-11-01T09:42:54.761Z,59.01
2023-11-01T09:45:22.847Z,58.05
2023-11-01T09:47:51.548Z,56.21
2023-11-01T09:50:18.995Z,55.43
2023-11-01T09:52:46.335Z,55.27
2023-11-01T09:55:16.166Z,55.38
2023-11-01T09:57:45.293Z,54.56
2023-11-01T10:00:13.568Z,54.32
2023-11-01T10:02:41.592Z,53.66
2023-11-01T10:05:08.931Z,52.69
2023-11-01T10:07:36.297Z,52.18
2023-11-01T10:10:05.258Z,52.05
2023-11-01T10:12:32.985Z,52.00
2023-11-01T10:15:06.086Z,50.83
2023-11-01T10:17:33.180Z,50.94
2023-11-01T10:20:03.555Z,50.88
2023-11-01T10:22:33.996Z,51.46
2023-11-01T10:25:01.201Z,50.44
2023-11-01T10:27:30.740Z,50.77
2023-11-01T10:30:02.045Z,51.31
2023-11-01T10:32:32.437Z,50.97
2023-11-01T10:35:15.038Z,49.98
2023-11-01T10:37:42.040Z,49.08
2023-11-01T10:40:17.833Z,49.19
2023-11-01T10:42:45.576Z,49.74
2023-11-01T10:45:12.675Z,48.74
2023-11-01T10:47:39.797Z,48.89
2023-11-01T10:50:07.875Z,48.69
2023-11-01T10:52:35.396Z,49.26
2023-11-01T10:55:03.990Z,49.66
2023-11-01T10:57:31.874Z,49.05
2023-11-01T11:00:06.635Z,48.65
2023-11-01T11:02:39.381Z,47.65
2023-11-01T11:05:09.166Z,47.06
2023-11-01T11:07:45.766Z,47.95
2023-11-01T11:10:28.940Z,48.00
2023-11-01T11:13:11.668Z,47.87
2023-11-01T11:15:48.554Z,48.36
2023-11-01T11:18:22.277Z,48.25
2023-11-01T11:20:51.065Z,48.13
2023-11-01T11:23:19.175Z,47.72
2023-11-01T11:25:50.928Z,47.78
2023-11-01T11:28:23.845Z,47.08
2023-11-01T11:31:17.225Z,46.55
2023-11-01T11:33:47.702Z,46.62
2023-11-01T11:36:17.133Z,46.81
2023-11-01T11:38:51.590Z,47.06
2023-11-01T11:41:19.851Z,47.25
2023-11-01T11:44:14.828Z,47.86
2023-11-01T11:46:48.146Z,47.53
2023-11-01T11:49:27.436Z,47.44
2023-11-01T11:52:01.188Z,50.19
2023-11-01T11:54:32.025Z,52.79
2023-11-01T11:57:09.376Z,52.42
2023-11-01T11:59:37.595Z,50.25
2023-11-01T12:02:13.667Z,48.96
2023-11-01T12:04:44.266Z,48.41
2023-11-01T12:07:22.612Z,48.49
2023-11-01T12:09:54.061Z,48.17
2023-11-01T12:12:22.706Z,48.28
2023-11-01T12:15:03.047Z,48.20
2023-11-01T12:17:36.144Z,48.83
2023-11-01T12:20:05.132Z,48.75
2023-11-01T12:22:45.486Z,49.37
2023-11-01T12:25:13.225Z,50.65
2023-11-01T12:27:41.811Z,50.67
2023-11-01T12:30:09.978Z,50.86
2023-11-01T12:32:40.025Z,50.25
2023-11-01T12:35:07.716Z,50.33
2023-11-01T12:37:36.940Z,50.21
2023-11-01T12:40:14.710Z,50.32
2023-11-01T12:43:10.087Z,50.68
2023-11-01T12:45:37.453Z,51.21
2023-11-01T12:48:06.483Z,53.57
2023-11-01T12:50:35.688Z,53.89
2023-11-01T12:53:03.001Z,55.93
2023-11-01T12:55:30.387Z,57.04
2023-11-01T12:58:01.028Z,57.18
2023-11-01T13:00:32.682Z,58.59
2023-11-01T13:03:03.313Z,60.60
2023-11-01T13:05:31.554Z,62.44
2023-11-01T13:07:59.498Z,63.35
2023-11-01T13:10:27.120Z,64.80
2023-11-01T13:12:57.204Z,66.00
2023-11-01T13:15:26.432Z,66.73
2023-11-01T13:17:54.064Z,67.56
2023-11-01T13:20:21.578Z,67.96
2023-11-01T13:22:51.677Z,68.64
2023-11-01T13:25:20.737Z,69.02
2023-11-01T13:27:47.980Z,69.62
2023-11-01T13:30:15.365Z,70.62
2023-11-01T13:32:42.857Z,71.16
2023-11-01T13:35:13.126Z,71.68
2023-11-01T13:37:40.578Z,72.89
2023-11-01T13:40:09.245Z,72.97
2023-11-01T13:42:36.391Z,73.47
2023-11-01T13:45:03.709Z,73.89
2023-11-01T13:47:32.923Z,74.73
2023-11-01T13:50:00.522Z,75.01
2023-11-01T13:52:28.675Z,75.18
2023-11-01T13:54:55.839Z,75.42
2023-11-01T13:57:23.894Z,75.85
2023-11-01T13:59:51.055Z,76.00
2023-11-01T14:02:18.345Z,75.91
2023-11-01T14:04:45.537Z,76.06
2023-11-01T14:07:12.723Z,75.90
2023-11-01T14:09:41.039Z,75.63
2023-11-01T14:12:08.713Z,76.18
2023-11-01T14:14:36.064Z,76.22
2023-11-01T14:17:03.335Z,76.37
2023-11-01T14:19:30.484Z,76.76
2023-11-01T14:22:04.278Z,77.27
2023-11-01T14:24:31.548Z,77.37
2023-11-01T14:26:59.030Z,77.55
2023-11-01T14:29:27.217Z,77.65
2023-11-01T14:31:54.795Z,78.01
2023-11-01T14:34:22.393Z,78.61
2023-11-01T14:36:49.909Z,78.99
2023-11-01T14:39:17.090Z,79.17
2023-11-01T14:41:44.303Z,79.55
2023-11-01T14:44:11.688Z,79.64
2023-11-01T14:46:39.258Z,80.19
2023-11-01T14:49:08.777Z,80.53
2023-11-01T14:51:36.084Z,81.06
2023-11-01T14:54:05.124Z,81.50
2023-11-01T14:56:32.374Z,81.74
2023-11-01T14:59:01.801Z,82.07
2023-11-01T15:01:35.123Z,82.43
2023-11-01T15:04:03.117Z,82.66
2023-11-01T15:06:31.444Z,82.74
2023-11-01T15:08:58.900Z,82.77
2023-11-01T15:11:26.163Z,83.05
2023-11-01T15:13:53.484Z,83.03
2023-11-01T15:16:20.661Z,83.22
2023-11-01T15:18:47.992Z,83.36
2023-11-01T15:21:15.376Z,83.58
2023-11-01T15:23:42.902Z,83.62
2023-11-01T15:26:10.119Z,83.85
2023-11-01T15:28:39.056Z,84.12
2023-11-01T15:31:06.349Z,84.23
2023-11-01T15:33:36.072Z,84.31
2023-11-01T15:36:03.408Z,84.77
2023-11-01T15:38:30.590Z,84.72
2023-11-01T15:40:58.822Z,84.62
2023-11-01T15:43:26.040Z,84.64
2023-11-01T15:45:53.186Z,84.66
2023-11-01T15:48:23.088Z,84.81
2023-11-01T15:50:50.428Z,84.80
2023-11-01T15:53:17.683Z,84.84
2023-11-01T15:55:47.846Z,85.15
2023-11-01T15:58:15.806Z,85.34
2023-11-01T16:00:43.917Z,85.63
2023-11-01T16:03:11.429Z,86.08
2023-11-01T16:05:42.498Z,86.57
2023-11-01T16:08:09.870Z,86.75
2023-11-01T16:10:39.712Z,87.05
2023-11-01T16:13:08.377Z,87.28
2023-11-01T16:15:35.450Z,87.51
2023-11-01T16:18:03.000Z,87.51
2023-11-01T16:20:30.541Z,88.27
2023-11-01T16:22:58.233Z,88.11
2023-11-01T16:25:28.610Z,88.04
2023-11-01T16:27:58.423Z,88.30
2023-11-01T16:30:27.592Z,88.23
2023-11-01T16:32:57.535Z,88.24
2023-11-01T16:35:27.121Z,88.49
2023-11-01T16:37:59.949Z,88.63
2023-11-01T16:40:27.285Z,88.81
2023-11-01T16:42:54.339Z,88.91
2023-11-01T16:45:21.639Z,88.99
2023-11-01T16:47:49.066Z,89.30
2023-11-01T16:50:17.816Z,89.54
2023-11-01T16:52:58.565Z,89.49
2023-11-01T16:55:25.972Z,89.66
2023-11-01T16:57:56.883Z,89.59
2023-11-01T17:00:27.241Z,89.52
2023-11-01T17:02:54.517Z,89.39
2023-11-01T17:05:22.150Z,89.39
2023-11-01T17:07:49.718Z,88.91
2023-11-01T17:10:19.481Z,88.66
2023-11-01T17:12:46.734Z,88.23
2023-11-01T17:15:13.960Z,88.05
2023-11-01T17:17:44.167Z,88.16
2023-11-01T17:20:12.334Z,87.87
2023-11-01T17:22:43.701Z,87.98
2023-11-01T17:25:57.907Z,87.61
2023-11-01T17:28:29.286Z,88.10
2023-11-01T17:30:59.961Z,87.93
2023-11-01T17:33:35.204Z,88.02
2023-11-01T17:36:07.462Z,88.19
2023-11-01T17:38:41.787Z,88.06
2023-11-01T17:41:10.364Z,88.08
2023-11-01T17:43:59.589Z,88.55
2023-11-01T17:46:29.709Z,88.53
2023-11-01T17:48:59.355Z,88.54
2023-11-01T17:51:40.536Z,88.65
2023-11-01T17:54:15.939Z,88.43
2023-11-01T17:56:48.935Z,88.78
2023-11-01T17:59:23.732Z,88.70
2023-11-01T18:01:52.730Z,88.67
2023-11-01T18:04:22.970Z,88.66
2023-11-01T18:06:50.587Z,88.83
2023-11-01T18:09:19.142Z,88.81
2023-11-01T18:11:47.356Z,88.91
2023-11-01T18:14:15.179Z,88.92
2023-11-01T18:16:43.117Z,89.10
2023-11-01T18:19:10.467Z,89.12
2023-11-01T18:22:04.714Z,88.97
2023-11-01T18:24:42.427Z,88.84
2023-11-01T18:27:12.206Z,88.95
2023-11-01T18:29:39.348Z,89.28
2023-11-01T18:32:08.355Z,89.22
2023-11-01T18:35:14.472Z,89.41
2023-11-01T18:37:41.890Z,89.64
2023-11-01T18:40:14.021Z,89.92
2023-11-01T18:42:57.257Z,90.35
2023-11-01T18:45:24.951Z,91.09
2023-11-01T18:47:57.908Z,91.38
2023-11-01T18:50:25.356Z,92.45
2023-11-01T18:52:52.565Z,92.93
2023-11-01T18:55:32.172Z,93.73
2023-11-01T18:57:59.811Z,94.31
2023-11-01T19:00:28.724Z,94.87
2023-11-01T19:03:06.284Z,95.60
2023-11-01T19:05:35.167Z,95.86
2023-11-01T19:08:02.798Z,96.53
2023-11-01T19:10:35.053Z,97.10
2023-11-01T19:13:06.760Z,97.46
2023-11-01T19:16:21.229Z,97.86
2023-11-01T19:18:49.043Z,98.04
2023-11-01T19:21:17.920Z,98.09
2023-11-01T19:23:47.370Z,98.33
2023-11-01T19:26:15.577Z,98.15
2023-11-01T19:28:44.210Z,98.30
2023-11-01T19:31:20.698Z,98.39
2023-11-01T19:33:53.445Z,98.21
2023-11-01T19:36:21.770Z,98.47
2023-11-01T19:38:48.983Z,98.58
2023-11-01T19:41:17.697Z,98.62
2023-11-01T19:43:44.914Z,99.21
2023-11-01T19:46:12.620Z,99.88
2023-11-01T19:48:41.638Z,100.00
2023-11-01T19:51:09.620Z,100.00
2023-11-01T19:53:37.033Z,100.00
2023-11-01T19:56:04.529Z,100.00
2023-11-01T19:58:32.332Z,100.00
2023-11-01T20:01:00.988Z,100.00
2023-11-01T20:03:30.028Z,100.00
2023-11-01T20:05:57.384Z,100.00
2023-11-01T20:08:28.475Z,100.00
2023-11-01T20:10:55.780Z,100.00
2023-11-01T20:13:23.181Z,100.00
2023-11-01T20:15:50.357Z,100.00
2023-11-01T20:18:26.700Z,100.00
2023-11-01T20:20:54.129Z,100.00
2023-11-01T20:23:21.201Z,100.00
2023-11-01T20:25:48.417Z,100.00
2023-11-01T20:28:20.776Z,100.00
2023-11-01T20:30:49.104Z,100.00
2023-11-01T20:33:17.143Z,100.00
2023-11-01T20:35:47.234Z,100.00
2023-11-01T20:38:14.246Z,100.00
2023-11-01T20:40:41.497Z,100.00
2023-11-01T20:43:08.536Z,100.00
2023-11-01T20:45:38.863Z,100.00
2023-11-01T20:48:08.593Z,100.00
2023-11-01T20:50:36.040Z,100.00
2023-11-01T20:53:03.117Z,100.00
2023-11-01T20:55:30.943Z,100.00
2023-11-01T20:57:58.001Z,100.00
2023-11-01T21:00:25.840Z,100.00
2023-11-01T21:02:53.032Z,100.00
2023-11-01T21:05:21.013Z,100.00
2023-11-01T21:07:48.119Z,100.00
2023-11-01T21:10:15.801Z,100.00
2023-11-01T21:12:45.144Z,100.00
2023-11-01T21:15:13.338Z,100.00
2023-11-01T21:17:41.746Z,100.00
2023-11-01T21:20:10.954Z,100.00
2023-11-01T21:22:41.798Z,100.00
2023-11-01T21:25:09.432Z,100.00
2023-11-01T21:27:36.545Z,100.00
2023-11-01T21:30:04.603Z,100.00
2023-11-01T21:32:33.702Z,100.00
2023-11-01T21:35:01.593Z,100.00
2023-11-01T21:37:32.545Z,100.00
2023-11-01T21:39:59.879Z,100.00
2023-11-01T21:42:26.982Z,100.00
2023-11-01T21:44:54.543Z,100.00
2023-11-01T21:47:30.663Z,100.00
2023-11-01T21:49:59.348Z,100.00
2023-11-01T21:52:26.635Z,100.00
2023-11-01T21:54:53.835Z,100.00
2023-11-01T21:57:31.734Z,100.00
2023-11-01T22:00:06.439Z,100.00
2023-11-01T22:02:49.424Z,100.00
2023-11-01T22:05:18.394Z,100.00
2023-11-01T22:07:46.053Z,100.00
2023-11-01T22:10:15.950Z,100.00
2023-11-01T22:12:46.665Z,100.00
2023-11-01T22:15:19.336Z,100.00
2023-11-01T22:17:47.699Z,100.00
2023-11-01T22:20:23.470Z,100.00
2023-11-01T22:22:52.686Z,100.00
2023-11-01T22:25:38.971Z,100.00
2023-11-01T22:28:10.176Z,100.00
2023-11-01T22:30:42.115Z,100.00
2023-11-01T22:33:16.339Z,100.00
2023-11-01T22:35:45.241Z,100.00
2023-11-01T22:38:15.025Z,100.00
2023-11-01T22:40:45.887Z,100.00
2023-11-01T22:43:16.800Z,100.00
2023-11-01T22:45:45.362Z,100.00
2023-11-01T22:48:13.982Z,100.00
2023-11-01T22:50:41.472Z,100.00
2023-11-01T22:53:09.381Z,100.00
2023-11-01T22:55:41.365Z,100.00
2023-11-01T22:58:11.140Z,100.00
2023-11-01T23:00:38.450Z,100.00
2023-11-01T23:03:06.556Z,100.00
2023-11-01T23:05:35.733Z,100.00
2023-11-01T23:08:04.666Z,100.00
2023-11-01T23:10:34.060Z,100.00
2023-11-01T23:13:01.900Z,100.00
2023-11-01T23:15:29.798Z,100.00
2023-11-01T23:17:58.996Z,100.00
2023-11-01T23:20:26.440Z,100.00
2023-11-01T23:22:54.597Z,100.00
2023-11-01T23:25:31.288Z,100.00
2023-11-01T23:27:59.739Z,100.00
2023-11-01T23:30:50.481Z,100.00
2023-11-01T23:33:17.831Z,100.00
2023-11-01T23:35:46.394Z,100.00
2023-11-01T23:38:14.865Z,100.00
2023-11-01T23:40:44.287Z,100.00
2023-11-01T23:43:12.646Z,100.00
2023-11-01T23:45:58.453Z,100.00
2023-11-01T23:48:26.226Z,100.00
2023-11-01T23:50:53.353Z,100.00
2023-11-01T23:53:26.668Z,100.00
2023-11-01T23:55:53.900Z,100.00
2023-11-01T23:58:29.929Z,100.00
